PRIVATE WETTERSTATION BILLIGHEIM-ALLFELD                       ZURCK
Wetterdaten: Freitag, 22.09.2017
Datum Zeit Temp. A. Temp. A. min Temp. A. max Feuchte A. Luftdruck Regen Wind Richtung Richtung Sonnenschein ET Solar Taupunkt Windchill Windben Empfang
22.09.2017 00:00 8,8 C 8,7 C 8,8 C 89 % 1019,7 hPa 0,0 l/m 0,0 km/h (0 Bft) N 0 0 min 0,000 mm 0 W/m 7,1 C 8,8 C 0,0 km/h (0 Bft) 100 %
22.09.2017 00:10 8,6 C 8,6 C 8,8 C 89 % 1019,7 hPa 0,0 l/m 0,0 km/h (0 Bft) N 0 0 min 0,000 mm 0 W/m 6,9 C 8,6 C 0,0 km/h (0 Bft) 100 %
22.09.2017 00:20 8,5 C 8,5 C 8,6 C 89 % 1019,7 hPa 0,0 l/m 0,0 km/h (0 Bft) N 0 0 min 0,000 mm 0 W/m 6,8 C 8,5 C 0,0 km/h (0 Bft) 100 %
22.09.2017 00:30 8,4 C 8,4 C 8,5 C 89 % 1019,7 hPa 0,0 l/m 0,0 km/h (0 Bft) N-NO 22 0 min 0,000 mm 0 W/m 6,7 C 8,4 C 1,6 km/h (1 Bft) 100 %
22.09.2017 00:40 8,3 C 8,3 C 8,4 C 89 % 1019,7 hPa 0,0 l/m 0,0 km/h (0 Bft) N 0 0 min 0,000 mm 0 W/m 6,6 C 8,3 C 0,0 km/h (0 Bft) 100 %
22.09.2017 00:50 8,3 C 8,3 C 8,3 C 89 % 1019,6 hPa 0,0 l/m 0,0 km/h (0 Bft) N-NO 22 0 min 0,000 mm 0 W/m 6,6 C 8,3 C 3,2 km/h (1 Bft) 100 %
22.09.2017 01:00 8,3 C 8,2 C 8,3 C 89 % 1019,6 hPa 0,0 l/m 0,0 km/h (0 Bft) N-NO 22 0 min 0,000 mm 0 W/m 6,6 C 8,3 C 4,8 km/h (1 Bft) 100 %
22.09.2017 01:10 8,2 C 8,2 C 8,3 C 89 % 1019,7 hPa 0,0 l/m 0,0 km/h (0 Bft) N 0 0 min 0,000 mm 0 W/m 6,5 C 8,2 C 0,0 km/h (0 Bft) 100 %
22.09.2017 01:20 8,0 C 8,0 C 8,2 C 89 % 1019,7 hPa 0,0 l/m 0,0 km/h (0 Bft) N 0 0 min 0,000 mm 0 W/m 6,3 C 8,0 C 0,0 km/h (0 Bft) 100 %
22.09.2017 01:30 7,8 C 7,8 C 8,0 C 89 % 1019,7 hPa 0,0 l/m 0,0 km/h (0 Bft) N 0 0 min 0,000 mm 0 W/m 6,1 C 7,8 C 0,0 km/h (0 Bft) 100 %
22.09.2017 01:40 7,7 C 7,7 C 7,8 C 89 % 1019,8 hPa 0,0 l/m 0,0 km/h (0 Bft) N 0 0 min 0,000 mm 0 W/m 6,0 C 7,7 C 0,0 km/h (0 Bft) 100 %
22.09.2017 01:50 7,6 C 7,6 C 7,7 C 89 % 1019,8 hPa 0,0 l/m 0,0 km/h (0 Bft) N 0 0 min 0,000 mm 0 W/m 5,9 C 7,6 C 0,0 km/h (0 Bft) 100 %
22.09.2017 02:00 7,5 C 7,5 C 7,6 C 89 % 1019,8 hPa 0,0 l/m 0,0 km/h (0 Bft) N 0 0 min 0,000 mm 0 W/m 5,8 C 7,5 C 0,0 km/h (0 Bft) 100 %
22.09.2017 02:10 7,4 C 7,4 C 7,5 C 89 % 1019,8 hPa 0,0 l/m 0,0 km/h (0 Bft) N 0 0 min 0,000 mm 0 W/m 5,7 C 7,4 C 0,0 km/h (0 Bft) 100 %
22.09.2017 02:20 7,3 C 7,3 C 7,4 C 89 % 1019,8 hPa 0,0 l/m 0,0 km/h (0 Bft) N 0 0 min 0,000 mm 0 W/m 5,6 C 7,3 C 0,0 km/h (0 Bft) 100 %
22.09.2017 02:30 7,2 C 7,2 C 7,3 C 89 % 1019,8 hPa 0,0 l/m 0,0 km/h (0 Bft) N 0 0 min 0,000 mm 0 W/m 5,5 C 7,2 C 0,0 km/h (0 Bft) 100 %
22.09.2017 02:40 7,0 C 7,0 C 7,2 C 89 % 1019,7 hPa 0,0 l/m 0,0 km/h (0 Bft) N-NO 22 0 min 0,000 mm 0 W/m 5,3 C 7,0 C 1,6 km/h (1 Bft) 100 %
22.09.2017 02:50 6,8 C 6,8 C 7,0 C 89 % 1019,7 hPa 0,0 l/m 0,0 km/h (0 Bft) N 0 0 min 0,000 mm 0 W/m 5,1 C 6,8 C 0,0 km/h (0 Bft) 100 %
22.09.2017 03:00 6,7 C 6,7 C 6,8 C 89 % 1019,6 hPa 0,0 l/m 0,0 km/h (0 Bft) N 0 0 min 0,000 mm 0 W/m 5,0 C 6,7 C 0,0 km/h (0 Bft) 100 %
22.09.2017 03:10 6,7 C 6,7 C 6,7 C 89 % 1019,5 hPa 0,0 l/m 0,0 km/h (0 Bft) N 0 0 min 0,000 mm 0 W/m 5,0 C 6,7 C 0,0 km/h (0 Bft) 100 %
22.09.2017 03:20 6,6 C 6,6 C 6,7 C 89 % 1019,4 hPa 0,0 l/m 0,0 km/h (0 Bft) N 0 0 min 0,000 mm 0 W/m 4,9 C 6,6 C 0,0 km/h (0 Bft) 100 %
22.09.2017 03:30 6,6 C 6,6 C 6,6 C 89 % 1019,4 hPa 0,0 l/m 0,0 km/h (0 Bft) N 0 0 min 0,000 mm 0 W/m 4,9 C 6,6 C 0,0 km/h (0 Bft) 99 %
22.09.2017 03:40 6,5 C 6,5 C 6,6 C 89 % 1019,4 hPa 0,0 l/m 0,0 km/h (0 Bft) N 0 0 min 0,000 mm 0 W/m 4,8 C 6,5 C 0,0 km/h (0 Bft) 91 %
22.09.2017 03:50 6,3 C 6,3 C 6,5 C 89 % 1019,4 hPa 0,0 l/m 0,0 km/h (0 Bft) N 0 0 min 0,000 mm 0 W/m 4,6 C 6,3 C 0,0 km/h (0 Bft) 100 %
22.09.2017 04:00 6,3 C 6,3 C 6,4 C 89 % 1019,3 hPa 0,0 l/m 0,0 km/h (0 Bft) N 0 0 min 0,000 mm 0 W/m 4,6 C 6,3 C 0,0 km/h (0 Bft) 100 %
22.09.2017 04:10 6,3 C 6,3 C 6,4 C 89 % 1019,2 hPa 0,0 l/m 0,0 km/h (0 Bft) N 0 0 min 0,000 mm 0 W/m 4,6 C 6,3 C 0,0 km/h (0 Bft) 100 %
22.09.2017 04:20 6,2 C 6,2 C 6,3 C 89 % 1019,2 hPa 0,0 l/m 0,0 km/h (0 Bft) N-NO 22 0 min 0,000 mm 0 W/m 4,5 C 6,2 C 1,6 km/h (1 Bft) 100 %
22.09.2017 04:30 6,1 C 6,1 C 6,2 C 89 % 1019,3 hPa 0,0 l/m 0,0 km/h (0 Bft) N 0 0 min 0,000 mm 0 W/m 4,4 C 6,1 C 0,0 km/h (0 Bft) 100 %
22.09.2017 04:40 6,1 C 6,0 C 6,1 C 89 % 1019,2 hPa 0,0 l/m 0,0 km/h (0 Bft) N 0 0 min 0,000 mm 0 W/m 4,4 C 6,1 C 0,0 km/h (0 Bft) 100 %
22.09.2017 04:50 5,9 C 5,9 C 6,0 C 90 % 1019,4 hPa 0,0 l/m 0,0 km/h (0 Bft) N 0 0 min 0,000 mm 0 W/m 4,4 C 5,9 C 0,0 km/h (0 Bft) 100 %
22.09.2017 05:00 5,9 C 5,8 C 5,9 C 94 % 1019,5 hPa 0,0 l/m 0,0 km/h (0 Bft) N 0 0 min 0,000 mm 0 W/m 5,0 C 5,9 C 0,0 km/h (0 Bft) 100 %
22.09.2017 05:10 5,8 C 5,8 C 5,9 C 89 % 1019,5 hPa 0,0 l/m 0,0 km/h (0 Bft) N 0 0 min 0,000 mm 0 W/m 4,1 C 5,8 C 0,0 km/h (0 Bft) 100 %
22.09.2017 05:20 5,8 C 5,8 C 5,8 C 89 % 1019,4 hPa 0,0 l/m 0,0 km/h (0 Bft) N-NO 22 0 min 0,000 mm 0 W/m 4,1 C 5,8 C 1,6 km/h (1 Bft) 100 %
22.09.2017 05:30 5,8 C 5,8 C 5,8 C 90 % 1019,4 hPa 0,0 l/m 0,0 km/h (0 Bft) N 0 0 min 0,000 mm 0 W/m 4,3 C 5,8 C 0,0 km/h (0 Bft) 99 %
22.09.2017 05:40 5,7 C 5,7 C 5,8 C 90 % 1019,3 hPa 0,0 l/m 0,0 km/h (0 Bft) N 0 0 min 0,000 mm 0 W/m 4,2 C 5,7 C 0,0 km/h (0 Bft) 100 %
22.09.2017 05:50 5,6 C 5,6 C 5,7 C 90 % 1019,4 hPa 0,0 l/m 0,0 km/h (0 Bft) N 0 0 min 0,000 mm 0 W/m 4,1 C 5,6 C 0,0 km/h (0 Bft) 90 %
22.09.2017 06:00 5,6 C 5,6 C 5,6 C 90 % 1019,4 hPa 0,0 l/m 0,0 km/h (0 Bft) N 0 0 min 0,000 mm 0 W/m 4,1 C 5,6 C 0,0 km/h (0 Bft) 100 %
22.09.2017 06:10 5,6 C 5,6 C 5,6 C 90 % 1019,3 hPa 0,0 l/m 0,0 km/h (0 Bft) N 0 0 min 0,000 mm 0 W/m 4,1 C 5,6 C 0,0 km/h (0 Bft) 100 %
22.09.2017 06:20 5,4 C 5,4 C 5,6 C 90 % 1019,2 hPa 0,0 l/m 0,0 km/h (0 Bft) N 0 0 min 0,000 mm 0 W/m 3,9 C 5,4 C 0,0 km/h (0 Bft) 99 %
22.09.2017 06:30 5,3 C 5,3 C 5,4 C 90 % 1019,1 hPa 0,0 l/m 0,0 km/h (0 Bft) N 0 0 min 0,000 mm 0 W/m 3,8 C 5,3 C 0,0 km/h (0 Bft) 100 %
22.09.2017 06:40 5,2 C 5,2 C 5,3 C 90 % 1019,2 hPa 0,0 l/m 0,0 km/h (0 Bft) N 0 0 min 0,000 mm 0 W/m 3,7 C 5,2 C 0,0 km/h (0 Bft) 100 %
22.09.2017 06:50 5,2 C 5,2 C 5,2 C 90 % 1019,3 hPa 0,0 l/m 0,0 km/h (0 Bft) N 0 0 min 0,000 mm 0 W/m 3,7 C 5,2 C 0,0 km/h (0 Bft) 100 %
22.09.2017 07:00 5,2 C 5,2 C 5,2 C 90 % 1019,4 hPa 0,0 l/m 0,0 km/h (0 Bft) N 0 0 min 0,000 mm 0 W/m 3,7 C 5,2 C 0,0 km/h (0 Bft) 100 %
22.09.2017 07:10 5,2 C 5,2 C 5,2 C 90 % 1019,5 hPa 0,0 l/m 0,0 km/h (0 Bft) N 0 0 min 0,000 mm 0 W/m 3,7 C 5,2 C 0,0 km/h (0 Bft) 100 %
22.09.2017 07:20 5,3 C 5,2 C 5,3 C 90 % 1019,6 hPa 0,0 l/m 0,0 km/h (0 Bft) N 0 0 min 0,000 mm 7 W/m 3,8 C 5,3 C 0,0 km/h (0 Bft) 100 %
22.09.2017 07:30 5,3 C 5,3 C 5,3 C 90 % 1019,6 hPa 0,0 l/m 0,0 km/h (0 Bft) N 0 0 min 0,000 mm 16 W/m 3,8 C 5,3 C 0,0 km/h (0 Bft) 100 %
22.09.2017 07:40 5,4 C 5,3 C 5,4 C 90 % 1019,5 hPa 0,0 l/m 0,0 km/h (0 Bft) N 0 0 min 0,000 mm 30 W/m 3,9 C 5,4 C 0,0 km/h (0 Bft) 100 %
22.09.2017 07:50 5,6 C 5,4 C 5,6 C 90 % 1019,6 hPa 0,0 l/m 0,0 km/h (0 Bft) N 0 0 min 0,000 mm 33 W/m 4,1 C 5,6 C 0,0 km/h (0 Bft) 99 %
22.09.2017 08:00 5,9 C 5,6 C 5,9 C 90 % 1019,6 hPa 0,0 l/m 0,0 km/h (0 Bft) N-NO 22 0 min 0,000 mm 40 W/m 4,4 C 5,9 C 1,6 km/h (1 Bft) 99 %
22.09.2017 08:10 6,2 C 5,9 C 6,2 C 90 % 1019,8 hPa 0,0 l/m 0,0 km/h (0 Bft) N 0 0 min 0,000 mm 46 W/m 4,7 C 6,2 C 0,0 km/h (0 Bft) 97 %
22.09.2017 08:20 6,4 C 6,2 C 6,4 C 90 % 1019,8 hPa 0,0 l/m 0,0 km/h (0 Bft) N-NO 22 0 min 0,000 mm 56 W/m 4,9 C 6,4 C 1,6 km/h (1 Bft) 98 %
22.09.2017 08:30 6,7 C 6,4 C 6,7 C 90 % 1019,8 hPa 0,0 l/m 0,0 km/h (0 Bft) N 0 0 min 0,000 mm 65 W/m 5,2 C 6,7 C 0,0 km/h (0 Bft) 97 %
22.09.2017 08:40 7,0 C 6,7 C 7,0 C 90 % 1019,8 hPa 0,0 l/m 0,0 km/h (0 Bft) N 0 0 min 0,000 mm 67 W/m 5,5 C 7,0 C 0,0 km/h (0 Bft) 98 %
22.09.2017 08:50 7,2 C 7,0 C 7,2 C 90 % 1019,9 hPa 0,0 l/m 0,0 km/h (0 Bft) N-NW 337 0 min 0,000 mm 77 W/m 5,7 C 7,2 C 1,6 km/h (1 Bft) 98 %
22.09.2017 09:00 7,4 C 7,2 C 7,4 C 90 % 1019,8 hPa 0,0 l/m 0,0 km/h (0 Bft) N 0 0 min 0,025 mm 111 W/m 5,9 C 7,4 C 0,0 km/h (0 Bft) 96 %
22.09.2017 09:10 7,8 C 7,4 C 7,8 C 90 % 1020,0 hPa 0,0 l/m 0,0 km/h (0 Bft) N 0 10 min 0,000 mm 258 W/m 6,3 C 7,8 C 0,0 km/h (0 Bft) 98 %
22.09.2017 09:20 8,2 C 7,8 C 8,2 C 90 % 1020,0 hPa 0,0 l/m 0,0 km/h (0 Bft) N 0 10 min 0,000 mm 250 W/m 6,7 C 8,2 C 0,0 km/h (0 Bft) 97 %
22.09.2017 09:30 8,9 C 8,2 C 8,9 C 90 % 1020,1 hPa 0,0 l/m 0,0 km/h (0 Bft) N 0 10 min 0,000 mm 257 W/m 7,4 C 8,9 C 0,0 km/h (0 Bft) 98 %
22.09.2017 09:40 9,4 C 8,9 C 9,4 C 90 % 1020,1 hPa 0,0 l/m 0,0 km/h (0 Bft) N 0 10 min 0,000 mm 192 W/m 7,8 C 9,4 C 0,0 km/h (0 Bft) 97 %
22.09.2017 09:50 9,6 C 9,4 C 9,6 C 90 % 1020,2 hPa 0,0 l/m 0,0 km/h (0 Bft) N 0 10 min 0,000 mm 308 W/m 8,0 C 9,6 C 0,0 km/h (0 Bft) 98 %
22.09.2017 10:00 10,1 C 9,6 C 10,1 C 90 % 1020,3 hPa 0,0 l/m 0,0 km/h (0 Bft) N 0 10 min 0,076 mm 334 W/m 8,5 C 10,1 C 0,0 km/h (0 Bft) 99 %
22.09.2017 10:10 10,5 C 10,2 C 10,5 C 90 % 1020,4 hPa 0,0 l/m 0,0 km/h (0 Bft) N 0 10 min 0,000 mm 322 W/m 8,9 C 10,5 C 0,0 km/h (0 Bft) 99 %
22.09.2017 10:20 11,3 C 10,5 C 11,3 C 89 % 1020,3 hPa 0,0 l/m 0,0 km/h (0 Bft) N 0 10 min 0,000 mm 436 W/m 9,6 C 11,3 C 0,0 km/h (0 Bft) 100 %
22.09.2017 10:30 12,1 C 11,3 C 12,1 C 89 % 1020,2 hPa 0,0 l/m 0,0 km/h (0 Bft) N 0 10 min 0,000 mm 464 W/m 10,3 C 12,1 C 0,0 km/h (0 Bft) 100 %
22.09.2017 10:40 12,9 C 12,2 C 12,9 C 87 % 1020,1 hPa 0,0 l/m 0,0 km/h (0 Bft) W-NW 292 10 min 0,000 mm 471 W/m 10,8 C 12,9 C 3,2 km/h (1 Bft) 100 %
22.09.2017 10:50 13,4 C 12,9 C 13,4 C 85 % 1020,3 hPa 0,0 l/m 1,6 km/h (1 Bft) W-SW 247 10 min 0,000 mm 369 W/m 10,9 C 13,4 C 6,4 km/h (2 Bft) 100 %
22.09.2017 11:00 13,3 C 13,3 C 13,5 C 82 % 1020,3 hPa 0,0 l/m 1,6 km/h (1 Bft) W-SW 247 10 min 0,152 mm 332 W/m 10,3 C 13,3 C 6,4 km/h (2 Bft) 99 %
22.09.2017 11:10 13,1 C 13,1 C 13,3 C 82 % 1020,2 hPa 0,0 l/m 0,0 km/h (0 Bft) W-SW 247 10 min 0,000 mm 436 W/m 10,1 C 13,1 C 4,8 km/h (1 Bft) 99 %
22.09.2017 11:20 13,1 C 12,9 C 13,1 C 85 % 1020,3 hPa 0,0 l/m 1,6 km/h (1 Bft) SW 225 10 min 0,000 mm 626 W/m 10,6 C 13,1 C 8,0 km/h (2 Bft) 100 %
22.09.2017 11:30 13,8 C 13,1 C 13,8 C 83 % 1020,1 hPa 0,0 l/m 1,6 km/h (1 Bft) S-SW 202 10 min 0,000 mm 656 W/m 11,0 C 13,8 C 8,0 km/h (2 Bft) 100 %
22.09.2017 11:40 14,3 C 13,8 C 14,3 C 81 % 1020,1 hPa 0,0 l/m 3,2 km/h (1 Bft) S-SW 202 10 min 0,000 mm 612 W/m 11,1 C 14,3 C 11,3 km/h (2 Bft) 100 %
22.09.2017 11:50 15,0 C 14,3 C 15,0 C 77 % 1020,0 hPa 0,0 l/m 1,6 km/h (1 Bft) S-SW 202 10 min 0,000 mm 642 W/m 11,0 C 15,0 C 9,7 km/h (2 Bft) 100 %
22.09.2017 12:00 15,3 C 14,9 C 15,3 C 77 % 1020,1 hPa 0,0 l/m 1,6 km/h (1 Bft) SW 225 10 min 0,254 mm 631 W/m 11,3 C 15,3 C 9,7 km/h (2 Bft) 100 %
22.09.2017 12:10 15,7 C 15,3 C 15,7 C 77 % 1020,0 hPa 0,0 l/m 0,0 km/h (0 Bft) S-SW 202 10 min 0,000 mm 645 W/m 11,7 C 15,7 C 6,4 km/h (2 Bft) 100 %
22.09.2017 12:20 15,8 C 15,7 C 15,8 C 75 % 1020,1 hPa 0,0 l/m 1,6 km/h (1 Bft) S-SW 202 10 min 0,000 mm 656 W/m 11,4 C 15,8 C 8,0 km/h (2 Bft) 100 %
22.09.2017 12:30 16,0 C 15,8 C 16,0 C 76 % 1020,0 hPa 0,0 l/m 1,6 km/h (1 Bft) S 180 10 min 0,000 mm 657 W/m 11,8 C 16,0 C 9,7 km/h (2 Bft) 100 %
22.09.2017 12:40 15,9 C 15,8 C 16,0 C 78 % 1020,0 hPa 0,0 l/m 1,6 km/h (1 Bft) SO 135 10 min 0,000 mm 661 W/m 12,1 C 15,9 C 9,7 km/h (2 Bft) 100 %
22.09.2017 12:50 16,3 C 15,9 C 16,3 C 78 % 1020,0 hPa 0,0 l/m 0,0 km/h (0 Bft) S-SW 202 10 min 0,000 mm 670 W/m 12,5 C 16,3 C 9,7 km/h (2 Bft) 100 %
22.09.2017 13:00 16,7 C 16,3 C 16,7 C 74 % 1020,0 hPa 0,0 l/m 1,6 km/h (1 Bft) S-SW 202 10 min 0,330 mm 675 W/m 12,0 C 16,7 C 8,0 km/h (2 Bft) 100 %
22.09.2017 13:10 17,1 C 16,7 C 17,1 C 74 % 1020,1 hPa 0,0 l/m 1,6 km/h (1 Bft) S-SW 202 10 min 0,000 mm 675 W/m 12,4 C 17,1 C 14,5 km/h (3 Bft) 100 %
22.09.2017 13:20 17,1 C 17,0 C 17,1 C 75 % 1020,0 hPa 0,0 l/m 1,6 km/h (1 Bft) S-SW 202 10 min 0,000 mm 664 W/m 12,6 C 17,1 C 6,4 km/h (2 Bft) 100 %
22.09.2017 13:30 17,5 C 17,1 C 17,5 C 73 % 1019,9 hPa 0,0 l/m 1,6 km/h (1 Bft) S 180 10 min 0,000 mm 666 W/m 12,6 C 17,5 C 6,4 km/h (2 Bft) 100 %
22.09.2017 13:40 17,9 C 17,5 C 17,9 C 75 % 1019,6 hPa 0,0 l/m 1,6 km/h (1 Bft) W 270 10 min 0,000 mm 670 W/m 13,4 C 17,9 C 9,7 km/h (2 Bft) 100 %
22.09.2017 13:50 17,8 C 17,7 C 17,9 C 73 % 1019,7 hPa 0,0 l/m 1,6 km/h (1 Bft) S-SW 202 10 min 0,000 mm 703 W/m 12,9 C 17,8 C 8,0 km/h (2 Bft) 100 %
22.09.2017 14:00 17,7 C 17,7 C 17,8 C 72 % 1019,5 hPa 0,0 l/m 0,0 km/h (0 Bft) S-SW 202 10 min 0,356 mm 700 W/m 12,6 C 17,7 C 6,4 km/h (2 Bft) 100 %
22.09.2017 14:10 17,9 C 17,7 C 17,9 C 72 % 1019,6 hPa 0,0 l/m 1,6 km/h (1 Bft) S-SW 202 10 min 0,000 mm 661 W/m 12,8 C 17,9 C 8,0 km/h (2 Bft) 100 %
22.09.2017 14:20 18,1 C 17,9 C 18,1 C 72 % 1019,6 hPa 0,0 l/m 1,6 km/h (1 Bft) S 180 10 min 0,000 mm 640 W/m 13,0 C 18,1 C 9,7 km/h (2 Bft) 100 %
22.09.2017 14:30 18,1 C 18,1 C 18,1 C 71 % 1019,6 hPa 0,0 l/m 0,0 km/h (0 Bft) S-SW 202 10 min 0,000 mm 628 W/m 12,8 C 18,1 C 4,8 km/h (1 Bft) 100 %
22.09.2017 14:40 18,4 C 18,1 C 18,4 C 68 % 1019,6 hPa 0,0 l/m 0,0 km/h (0 Bft) S-SW 202 10 min 0,000 mm 605 W/m 12,4 C 18,4 C 4,8 km/h (1 Bft) 100 %
22.09.2017 14:50 18,7 C 18,4 C 18,7 C 70 % 1019,6 hPa 0,0 l/m 0,0 km/h (0 Bft) S-SW 202 10 min 0,000 mm 605 W/m 13,1 C 18,7 C 6,4 km/h (2 Bft) 100 %
22.09.2017 15:00 18,7 C 18,7 C 18,8 C 68 % 1019,7 hPa 0,0 l/m 1,6 km/h (1 Bft) S 180 10 min 0,279 mm 179 W/m 12,7 C 18,7 C 12,9 km/h (3 Bft) 100 %
22.09.2017 15:10 18,4 C 18,4 C 18,7 C 68 % 1019,8 hPa 0,0 l/m 3,2 km/h (1 Bft) S-SO 157 10 min 0,000 mm 531 W/m 12,4 C 18,4 C 16,1 km/h (3 Bft) 100 %
22.09.2017 15:20 18,5 C 18,4 C 18,5 C 70 % 1019,7 hPa 0,0 l/m 0,0 km/h (0 Bft) SW 225 10 min 0,000 mm 540 W/m 12,9 C 18,5 C 8,0 km/h (2 Bft) 100 %
22.09.2017 15:30 18,8 C 18,5 C 18,8 C 67 % 1019,8 hPa 0,0 l/m 3,2 km/h (1 Bft) SW 225 10 min 0,000 mm 526 W/m 12,5 C 18,8 C 11,3 km/h (2 Bft) 100 %
22.09.2017 15:40 18,9 C 18,8 C 18,9 C 66 % 1019,8 hPa 0,0 l/m 3,2 km/h (1 Bft) W-SW 247 10 min 0,000 mm 536 W/m 12,4 C 18,9 C 9,7 km/h (2 Bft) 100 %
22.09.2017 15:50 18,8 C 18,7 C 18,9 C 67 % 1019,8 hPa 0,0 l/m 4,8 km/h (1 Bft) W-SW 247 10 min 0,000 mm 547 W/m 12,5 C 18,8 C 11,3 km/h (2 Bft) 100 %
22.09.2017 16:00 18,7 C 18,7 C 18,8 C 66 % 1019,7 hPa 0,0 l/m 4,8 km/h (1 Bft) S-SW 202 10 min 0,229 mm 360 W/m 12,2 C 18,7 C 9,7 km/h (2 Bft) 100 %
22.09.2017 16:10 18,8 C 18,7 C 18,8 C 65 % 1019,7 hPa 0,0 l/m 3,2 km/h (1 Bft) W-NW 292 0 min 0,000 mm 84 W/m 12,1 C 18,8 C 9,7 km/h (2 Bft) 100 %
22.09.2017 16:20 19,0 C 18,8 C 19,0 C 65 % 1019,7 hPa 0,0 l/m 4,8 km/h (1 Bft) W-NW 292 0 min 0,000 mm 84 W/m 12,3 C 19,0 C 9,7 km/h (2 Bft) 100 %
22.09.2017 16:30 18,7 C 18,7 C 19,1 C 66 % 1019,7 hPa 0,0 l/m 3,2 km/h (1 Bft) S-SO 157 0 min 0,000 mm 77 W/m 12,2 C 18,7 C 14,5 km/h (3 Bft) 100 %
22.09.2017 16:40 18,4 C 18,4 C 18,7 C 68 % 1019,7 hPa 0,0 l/m 4,8 km/h (1 Bft) S-SO 157 0 min 0,000 mm 97 W/m 12,4 C 18,4 C 9,7 km/h (2 Bft) 99 %
22.09.2017 16:50 18,3 C 18,3 C 18,4 C 69 % 1019,7 hPa 0,0 l/m 1,6 km/h (1 Bft) S 180 0 min 0,000 mm 90 W/m 12,5 C 18,3 C 4,8 km/h (1 Bft) 100 %
22.09.2017 17:00 18,4 C 18,3 C 18,4 C 69 % 1019,7 hPa 0,0 l/m 4,8 km/h (1 Bft) W 270 0 min 0,076 mm 81 W/m 12,6 C 18,4 C 11,3 km/h (2 Bft) 100 %
22.09.2017 17:10 18,5 C 18,4 C 18,5 C 68 % 1019,7 hPa 0,0 l/m 4,8 km/h (1 Bft) SW 225 0 min 0,000 mm 63 W/m 12,5 C 18,5 C 11,3 km/h (2 Bft) 100 %
22.09.2017 17:20 18,5 C 18,4 C 18,5 C 67 % 1019,7 hPa 0,0 l/m 3,2 km/h (1 Bft) W 270 0 min 0,000 mm 60 W/m 12,3 C 18,5 C 6,4 km/h (2 Bft) 99 %
22.09.2017 17:30 18,3 C 18,3 C 18,5 C 68 % 1019,8 hPa 0,0 l/m 1,6 km/h (1 Bft) W-SW 247 0 min 0,000 mm 40 W/m 12,3 C 18,3 C 8,0 km/h (2 Bft) 97 %
22.09.2017 17:40 17,8 C 17,8 C 18,3 C 69 % 1019,8 hPa 0,0 l/m 3,2 km/h (1 Bft) W-SW 247 0 min 0,000 mm 42 W/m 12,0 C 17,8 C 8,0 km/h (2 Bft) 97 %
22.09.2017 18:00 17,2 C 17,2 C 18,3 C 72 % 1020,0 hPa 0,0 l/m 1,5 km/h (1 Bft) SW 234 0 min 0,052 mm 65 W/m 12,1 C 17,2 C 6,4 km/h (2 Bft) 100 %
22.09.2017 18:10 17,0 C 17,0 C 17,2 C 74 % 1020,0 hPa 0,0 l/m 1,0 km/h (0 Bft) SW 234 0 min 0,000 mm 49 W/m 12,3 C 17,0 C 6,4 km/h (2 Bft) 100 %
22.09.2017 18:20 16,8 C 16,8 C 17,0 C 74 % 1020,0 hPa 0,0 l/m 1,2 km/h (1 Bft) SW 234 0 min 0,000 mm 39 W/m 12,1 C 16,8 C 6,4 km/h (2 Bft) 100 %
22.09.2017 18:30 16,7 C 16,7 C 16,8 C 74 % 1019,9 hPa 0,0 l/m 0,4 km/h (0 Bft) SW 234 0 min 0,000 mm 30 W/m 12,0 C 16,7 C 1,6 km/h (1 Bft) 100 %
22.09.2017 18:40 16,6 C 16,6 C 16,7 C 77 % 1019,9 hPa 0,0 l/m 0,0 km/h (0 Bft) SW 234 0 min 0,000 mm 18 W/m 12,5 C 16,6 C 0,0 km/h (0 Bft) 100 %
22.09.2017 18:50 16,3 C 16,3 C 16,6 C 77 % 1019,9 hPa 0,0 l/m 0,0 km/h (0 Bft) SW 234 0 min 0,000 mm 16 W/m 12,3 C 16,3 C 0,0 km/h (0 Bft) 100 %
22.09.2017 19:00 16,0 C 16,0 C 16,3 C 78 % 1019,9 hPa 0,0 l/m 0,0 km/h (0 Bft) SW 234 0 min 0,000 mm 7 W/m 12,2 C 16,0 C 0,0 km/h (0 Bft) 100 %
22.09.2017 19:10 15,6 C 15,6 C 16,0 C 79 % 1019,8 hPa 0,0 l/m 0,0 km/h (0 Bft) SW 234 0 min 0,025 mm 0 W/m 12,0 C 15,6 C 0,0 km/h (0 Bft) 100 %
22.09.2017 19:20 15,4 C 15,4 C 15,6 C 81 % 1020,0 hPa 0,0 l/m 0,0 km/h (0 Bft) SW 234 0 min 0,000 mm 0 W/m 12,2 C 15,4 C 0,0 km/h (0 Bft) 100 %
22.09.2017 19:30 15,1 C 15,1 C 15,4 C 81 % 1020,1 hPa 0,0 l/m 0,0 km/h (0 Bft) SW 234 0 min 0,000 mm 0 W/m 11,9 C 15,1 C 0,0 km/h (0 Bft) 100 %
22.09.2017 19:40 15,1 C 15,1 C 15,1 C 83 % 1020,1 hPa 0,0 l/m 0,0 km/h (0 Bft) SW 234 0 min 0,000 mm 0 W/m 12,2 C 15,1 C 0,0 km/h (0 Bft) 100 %
22.09.2017 19:50 14,8 C 14,8 C 15,1 C 83 % 1020,3 hPa 0,0 l/m 0,0 km/h (0 Bft) SW 234 0 min 0,000 mm 0 W/m 11,9 C 14,8 C 0,0 km/h (0 Bft) 100 %
22.09.2017 20:00 14,6 C 14,6 C 14,8 C 83 % 1020,3 hPa 0,0 l/m 0,0 km/h (0 Bft) SW 234 0 min 0,000 mm 0 W/m 11,7 C 14,6 C 0,0 km/h (0 Bft) 100 %
22.09.2017 20:10 14,4 C 14,4 C 14,6 C 83 % 1020,4 hPa 0,0 l/m 0,0 km/h (0 Bft) SW 234 0 min 0,000 mm 0 W/m 11,5 C 14,4 C 0,0 km/h (0 Bft) 100 %
22.09.2017 20:20 14,2 C 14,2 C 14,4 C 84 % 1020,5 hPa 0,0 l/m 0,0 km/h (0 Bft) SW 234 0 min 0,000 mm 0 W/m 11,5 C 14,2 C 0,0 km/h (0 Bft) 100 %
22.09.2017 20:30 14,0 C 14,0 C 14,2 C 84 % 1020,6 hPa 0,0 l/m 0,0 km/h (0 Bft) SW 234 0 min 0,000 mm 0 W/m 11,3 C 14,0 C 0,0 km/h (0 Bft) 100 %
22.09.2017 20:42 13,8 C 13,8 C 14,0 C 85 % 1020,8 hPa 0,0 l/m 0,0 km/h (0 Bft) SW 234 0 min 0,000 mm 0 W/m 11,3 C 13,8 C 0,0 km/h (0 Bft) 100 %
22.09.2017 20:50 13,7 C 13,7 C 13,8 C 85 % 1020,7 hPa 0,0 l/m 0,0 km/h (0 Bft) SW 234 0 min 0,000 mm 0 W/m 11,2 C 13,7 C 1,6 km/h (1 Bft) 100 %
22.09.2017 21:00 13,6 C 13,6 C 13,7 C 86 % 1020,8 hPa 0,0 l/m 0,0 km/h (0 Bft) SW 234 0 min 0,000 mm 0 W/m 11,3 C 13,6 C 0,0 km/h (0 Bft) 100 %
22.09.2017 21:10 13,4 C 13,4 C 13,6 C 86 % 1021,0 hPa 0,0 l/m 0,0 km/h (0 Bft) N 0 0 min 0,000 mm 0 W/m 11,1 C 13,4 C 0,0 km/h (0 Bft) 97 %
22.09.2017 21:20 13,2 C 13,2 C 13,4 C 87 % 1020,9 hPa 0,0 l/m 0,0 km/h (0 Bft) N 0 0 min 0,000 mm 0 W/m 11,1 C 13,2 C 0,0 km/h (0 Bft) 97 %
22.09.2017 21:30 13,0 C 13,0 C 13,2 C 87 % 1021,0 hPa 0,0 l/m 0,0 km/h (0 Bft) N 0 0 min 0,000 mm 0 W/m 10,9 C 13,0 C 0,0 km/h (0 Bft) 97 %
22.09.2017 21:40 12,8 C 12,8 C 13,0 C 88 % 1021,1 hPa 0,0 l/m 0,0 km/h (0 Bft) N 0 0 min 0,000 mm 0 W/m 10,9 C 12,8 C 0,0 km/h (0 Bft) 98 %
22.09.2017 21:50 12,8 C 12,8 C 12,9 C 88 % 1021,1 hPa 0,0 l/m 0,0 km/h (0 Bft) N 0 0 min 0,000 mm 0 W/m 10,9 C 12,8 C 0,0 km/h (0 Bft) 98 %
22.09.2017 22:00 12,6 C 12,6 C 12,8 C 88 % 1021,0 hPa 0,0 l/m 0,0 km/h (0 Bft) N 0 0 min 0,000 mm 0 W/m 10,7 C 12,6 C 0,0 km/h (0 Bft) 97 %
22.09.2017 22:10 12,4 C 12,4 C 12,6 C 88 % 1021,1 hPa 0,0 l/m 0,0 km/h (0 Bft) N 0 0 min 0,000 mm 0 W/m 10,5 C 12,4 C 0,0 km/h (0 Bft) 98 %
22.09.2017 22:20 12,2 C 12,2 C 12,4 C 88 % 1021,2 hPa 0,0 l/m 0,0 km/h (0 Bft) N 0 0 min 0,000 mm 0 W/m 10,3 C 12,2 C 0,0 km/h (0 Bft) 97 %
22.09.2017 22:30 12,0 C 12,0 C 12,2 C 89 % 1021,3 hPa 0,0 l/m 0,0 km/h (0 Bft) N 0 0 min 0,000 mm 0 W/m 10,2 C 12,0 C 0,0 km/h (0 Bft) 98 %
22.09.2017 22:40 11,8 C 11,8 C 12,0 C 89 % 1021,4 hPa 0,0 l/m 0,0 km/h (0 Bft) N 0 0 min 0,000 mm 0 W/m 10,0 C 11,8 C 0,0 km/h (0 Bft) 97 %
22.09.2017 22:50 11,7 C 11,7 C 11,8 C 89 % 1021,6 hPa 0,0 l/m 0,0 km/h (0 Bft) N 0 0 min 0,000 mm 0 W/m 9,9 C 11,7 C 0,0 km/h (0 Bft) 98 %
22.09.2017 23:00 11,5 C 11,5 C 11,7 C 89 % 1021,6 hPa 0,0 l/m 0,0 km/h (0 Bft) N 0 0 min 0,000 mm 0 W/m 9,8 C 11,5 C 0,0 km/h (0 Bft) 98 %
22.09.2017 23:10 11,2 C 11,2 C 11,5 C 89 % 1021,7 hPa 0,0 l/m 0,0 km/h (0 Bft) N 0 0 min 0,000 mm 0 W/m 9,5 C 11,2 C 0,0 km/h (0 Bft) 97 %
22.09.2017 23:20 11,1 C 11,1 C 11,2 C 89 % 1021,6 hPa 0,0 l/m 0,0 km/h (0 Bft) N 0 0 min 0,000 mm 0 W/m 9,4 C 11,1 C 0,0 km/h (0 Bft) 98 %
22.09.2017 23:30 10,9 C 10,9 C 11,1 C 89 % 1021,6 hPa 0,0 l/m 0,0 km/h (0 Bft) N 0 0 min 0,000 mm 0 W/m 9,2 C 10,9 C 0,0 km/h (0 Bft) 97 %
22.09.2017 23:40 10,9 C 10,9 C 11,0 C 89 % 1021,6 hPa 0,0 l/m 1,6 km/h (1 Bft) SW 225 0 min 0,000 mm 0 W/m 9,2 C 10,9 C 3,2 km/h (1 Bft) 98 %
22.09.2017 23:50 10,8 C 10,8 C 10,9 C 89 % 1021,7 hPa 0,0 l/m 0,0 km/h (0 Bft) SW 225 0 min 0,000 mm 0 W/m 9,1 C 10,8 C 3,2 km/h (1 Bft) 97 %
_ Min-Zeit 06:40 06:40 06:50 16:10 06:30 - 00:00 - - - - - 06:40 06:40 00:00 05:50
Minimum _ 5,2 C 5,2 C 5,2 C 65 % 1019,1 hPa - 0,0 km/h (0 Bft) - - - - - 3,7 C 5,2 C 0,0 km/h (0 Bft) 90 %
_ Max-Zeit 16:30 15:40 16:30 05:00 23:10 00:00 15:50 - - 09:10 14:00 13:50 13:40 16:20 15:10 00:10
Maximum _ 19,1 C 18,8 C 19,1 C 94 % 1021,7 hPa 0,0 l/m 4,8 km/h
W-SW (1 Bft)
- - 10 min 0,356 mm 703 W/m 13,4 C 19,0 C 16,1 km/h
S-SW (3 Bft)
100 %
Durchschnitt _ 11,7 C 11,6 C 11,8 C 83 % 1020,0 hPa #0,0 l/m 0,6 km/h (0 Bft) S-SW - #7:00 h #1,854 mm 336 W/m 8,9 C 11,7 C 3,0 km/h (1 Bft) 99 %
PRIVATE WETTERSTATION BILLIGHEIM-ALLFELD - www.neckar-odenwald-wetter.de - Holger Sonntag